sensor_id;sensor_type;location;lat;lon;timestamp;temperature;humidity
46309;DHT22;32037;50.820;6.494;2023-05-14T00:00:17;17.90;82.80
46309;DHT22;32037;50.820;6.494;2023-05-14T00:02:45;17.90;82.70
46309;DHT22;32037;50.820;6.494;2023-05-14T00:05:14;17.90;82.80
46309;DHT22;32037;50.820;6.494;2023-05-14T00:07:43;17.90;83.10
46309;DHT22;32037;50.820;6.494;2023-05-14T00:10:11;17.90;82.80
46309;DHT22;32037;50.820;6.494;2023-05-14T00:12:41;17.90;83.00
46309;DHT22;32037;50.820;6.494;2023-05-14T00:15:10;17.90;83.30
46309;DHT22;32037;50.820;6.494;2023-05-14T00:17:39;17.90;83.10
46309;DHT22;32037;50.820;6.494;2023-05-14T00:20:09;17.90;83.10
46309;DHT22;32037;50.820;6.494;2023-05-14T00:22:38;17.90;82.70
46309;DHT22;32037;50.820;6.494;2023-05-14T00:25:08;17.90;82.80
46309;DHT22;32037;50.820;6.494;2023-05-14T00:27:36;17.90;82.50
46309;DHT22;32037;50.820;6.494;2023-05-14T00:30:08;17.90;82.50
46309;DHT22;32037;50.820;6.494;2023-05-14T00:32:36;17.90;82.30
46309;DHT22;32037;50.820;6.494;2023-05-14T00:35:06;17.90;82.60
46309;DHT22;32037;50.820;6.494;2023-05-14T00:37:34;17.90;82.40
46309;DHT22;32037;50.820;6.494;2023-05-14T00:40:04;17.80;82.50
46309;DHT22;32037;50.820;6.494;2023-05-14T00:42:34;17.90;82.80
46309;DHT22;32037;50.820;6.494;2023-05-14T00:45:04;17.90;82.60
46309;DHT22;32037;50.820;6.494;2023-05-14T00:47:34;17.80;82.40
46309;DHT22;32037;50.820;6.494;2023-05-14T00:50:04;17.80;82.40
46309;DHT22;32037;50.820;6.494;2023-05-14T00:52:32;17.80;82.20
46309;DHT22;32037;50.820;6.494;2023-05-14T00:55:03;17.90;82.30
46309;DHT22;32037;50.820;6.494;2023-05-14T00:57:33;17.90;82.30
46309;DHT22;32037;50.820;6.494;2023-05-14T01:00:04;17.80;82.50
46309;DHT22;32037;50.820;6.494;2023-05-14T01:02:34;17.80;82.60
46309;DHT22;32037;50.820;6.494;2023-05-14T01:05:07;17.90;82.60
46309;DHT22;32037;50.820;6.494;2023-05-14T01:07:43;17.80;82.40
46309;DHT22;32037;50.820;6.494;2023-05-14T01:10:18;17.80;82.50
46309;DHT22;32037;50.820;6.494;2023-05-14T01:12:55;17.80;82.30
46309;DHT22;32037;50.820;6.494;2023-05-14T01:15:29;17.80;82.30
46309;DHT22;32037;50.820;6.494;2023-05-14T01:18:03;17.80;82.30
46309;DHT22;32037;50.820;6.494;2023-05-14T01:20:32;17.80;82.20
46309;DHT22;32037;50.820;6.494;2023-05-14T01:23:02;17.80;82.10
46309;DHT22;32037;50.820;6.494;2023-05-14T01:25:31;17.80;82.20
46309;DHT22;32037;50.820;6.494;2023-05-14T01:28:08;17.80;82.10
46309;DHT22;32037;50.820;6.494;2023-05-14T01:30:44;17.80;82.10
46309;DHT22;32037;50.820;6.494;2023-05-14T01:33:15;17.80;82.00
46309;DHT22;32037;50.820;6.494;2023-05-14T01:35:44;17.80;82.10
46309;DHT22;32037;50.820;6.494;2023-05-14T01:38:17;17.80;82.30
46309;DHT22;32037;50.820;6.494;2023-05-14T01:40:46;17.80;82.10
46309;DHT22;32037;50.820;6.494;2023-05-14T01:43:16;17.80;82.60
46309;DHT22;32037;50.820;6.494;2023-05-14T01:45:45;17.80;82.10
46309;DHT22;32037;50.820;6.494;2023-05-14T01:48:14;17.80;82.10
46309;DHT22;32037;50.820;6.494;2023-05-14T01:50:43;17.80;82.30
46309;DHT22;32037;50.820;6.494;2023-05-14T01:53:11;17.80;82.20
46309;DHT22;32037;50.820;6.494;2023-05-14T01:55:41;17.80;82.20
46309;DHT22;32037;50.820;6.494;2023-05-14T01:58:10;17.80;82.30
46309;DHT22;32037;50.820;6.494;2023-05-14T02:00:38;17.80;82.30
46309;DHT22;32037;50.820;6.494;2023-05-14T02:03:07;17.80;82.40
46309;DHT22;32037;50.820;6.494;2023-05-14T02:05:36;17.70;82.30
46309;DHT22;32037;50.820;6.494;2023-05-14T02:08:04;17.80;82.30
46309;DHT22;32037;50.820;6.494;2023-05-14T02:10:33;17.70;82.30
46309;DHT22;32037;50.820;6.494;2023-05-14T02:13:03;17.70;82.60
46309;DHT22;32037;50.820;6.494;2023-05-14T02:15:32;17.70;82.10
46309;DHT22;32037;50.820;6.494;2023-05-14T02:18:00;17.70;82.10
46309;DHT22;32037;50.820;6.494;2023-05-14T02:20:29;17.70;82.20
46309;DHT22;32037;50.820;6.494;2023-05-14T02:22:58;17.70;82.10
46309;DHT22;32037;50.820;6.494;2023-05-14T02:25:26;17.70;82.20
46309;DHT22;32037;50.820;6.494;2023-05-14T02:27:58;17.70;83.60
46309;DHT22;32037;50.820;6.494;2023-05-14T02:30:28;17.70;82.20
46309;DHT22;32037;50.820;6.494;2023-05-14T02:32:57;17.70;82.10
46309;DHT22;32037;50.820;6.494;2023-05-14T02:35:26;17.70;82.40
46309;DHT22;32037;50.820;6.494;2023-05-14T02:37:54;17.70;82.30
46309;DHT22;32037;50.820;6.494;2023-05-14T02:40:23;17.70;82.00
46309;DHT22;32037;50.820;6.494;2023-05-14T02:42:52;17.70;82.00
46309;DHT22;32037;50.820;6.494;2023-05-14T02:45:20;17.70;82.10
46309;DHT22;32037;50.820;6.494;2023-05-14T02:47:50;17.60;81.60
46309;DHT22;32037;50.820;6.494;2023-05-14T02:50:19;17.70;81.60
46309;DHT22;32037;50.820;6.494;2023-05-14T02:52:47;17.70;81.80
46309;DHT22;32037;50.820;6.494;2023-05-14T02:55:16;17.70;81.70
46309;DHT22;32037;50.820;6.494;2023-05-14T02:57:47;17.70;83.00
46309;DHT22;32037;50.820;6.494;2023-05-14T03:00:17;17.70;82.30
46309;DHT22;32037;50.820;6.494;2023-05-14T03:02:45;17.60;82.60
46309;DHT22;32037;50.820;6.494;2023-05-14T03:05:16;17.70;83.00
46309;DHT22;32037;50.820;6.494;2023-05-14T03:07:45;17.60;82.90
46309;DHT22;32037;50.820;6.494;2023-05-14T03:10:13;17.60;82.70
46309;DHT22;32037;50.820;6.494;2023-05-14T03:12:42;17.70;83.10
46309;DHT22;32037;50.820;6.494;2023-05-14T03:15:11;17.60;83.10
46309;DHT22;32037;50.820;6.494;2023-05-14T03:17:40;17.60;83.00
46309;DHT22;32037;50.820;6.494;2023-05-14T03:20:09;17.60;82.60
46309;DHT22;32037;50.820;6.494;2023-05-14T03:22:39;17.60;82.20
46309;DHT22;32037;50.820;6.494;2023-05-14T03:25:08;17.60;81.80
46309;DHT22;32037;50.820;6.494;2023-05-14T03:27:37;17.60;81.70
46309;DHT22;32037;50.820;6.494;2023-05-14T03:30:06;17.60;82.10
46309;DHT22;32037;50.820;6.494;2023-05-14T03:32:35;17.60;81.80
46309;DHT22;32037;50.820;6.494;2023-05-14T03:35:05;17.60;81.70
46309;DHT22;32037;50.820;6.494;2023-05-14T03:37:34;17.60;81.90
46309;DHT22;32037;50.820;6.494;2023-05-14T03:40:05;17.50;81.50
46309;DHT22;32037;50.820;6.494;2023-05-14T03:42:35;17.60;81.60
46309;DHT22;32037;50.820;6.494;2023-05-14T03:45:05;17.60;81.70
46309;DHT22;32037;50.820;6.494;2023-05-14T03:47:33;17.50;81.50
46309;DHT22;32037;50.820;6.494;2023-05-14T03:50:02;17.50;81.60
46309;DHT22;32037;50.820;6.494;2023-05-14T03:52:31;17.60;81.60
46309;DHT22;32037;50.820;6.494;2023-05-14T03:55:01;17.60;81.60
46309;DHT22;32037;50.820;6.494;2023-05-14T03:57:31;17.50;81.50
46309;DHT22;32037;50.820;6.494;2023-05-14T04:00:01;17.50;81.60
46309;DHT22;32037;50.820;6.494;2023-05-14T04:02:43;17.60;81.90
46309;DHT22;32037;50.820;6.494;2023-05-14T04:05:11;17.50;81.60
46309;DHT22;32037;50.820;6.494;2023-05-14T04:07:40;17.50;81.70
46309;DHT22;32037;50.820;6.494;2023-05-14T04:10:09;17.50;81.60
46309;DHT22;32037;50.820;6.494;2023-05-14T04:12:39;17.50;81.50
46309;DHT22;32037;50.820;6.494;2023-05-14T04:15:08;17.50;81.50
46309;DHT22;32037;50.820;6.494;2023-05-14T04:17:37;17.50;81.60
46309;DHT22;32037;50.820;6.494;2023-05-14T04:20:07;17.50;81.60
46309;DHT22;32037;50.820;6.494;2023-05-14T04:22:35;17.50;81.70
46309;DHT22;32037;50.820;6.494;2023-05-14T04:25:04;17.50;81.60
46309;DHT22;32037;50.820;6.494;2023-05-14T04:27:33;17.50;81.70
46309;DHT22;32037;50.820;6.494;2023-05-14T04:30:04;17.50;81.90
46309;DHT22;32037;50.820;6.494;2023-05-14T04:32:34;17.50;81.90
46309;DHT22;32037;50.820;6.494;2023-05-14T04:35:03;17.50;81.80
46309;DHT22;32037;50.820;6.494;2023-05-14T04:37:31;17.50;81.60
46309;DHT22;32037;50.820;6.494;2023-05-14T04:40:00;17.50;81.90
46309;DHT22;32037;50.820;6.494;2023-05-14T04:42:29;17.50;81.70
46309;DHT22;32037;50.820;6.494;2023-05-14T04:44:58;17.40;82.10
46309;DHT22;32037;50.820;6.494;2023-05-14T04:47:27;17.40;82.10
46309;DHT22;32037;50.820;6.494;2023-05-14T04:49:56;17.40;82.40
46309;DHT22;32037;50.820;6.494;2023-05-14T04:52:25;17.40;82.00
46309;DHT22;32037;50.820;6.494;2023-05-14T04:54:53;17.40;81.80
46309;DHT22;32037;50.820;6.494;2023-05-14T04:57:23;17.40;82.20
46309;DHT22;32037;50.820;6.494;2023-05-14T04:59:51;17.40;82.00
46309;DHT22;32037;50.820;6.494;2023-05-14T05:02:20;17.40;81.90
46309;DHT22;32037;50.820;6.494;2023-05-14T05:04:49;17.40;82.30
46309;DHT22;32037;50.820;6.494;2023-05-14T05:07:18;17.40;82.70
46309;DHT22;32037;50.820;6.494;2023-05-14T05:09:46;17.40;82.60
46309;DHT22;32037;50.820;6.494;2023-05-14T05:12:15;17.40;82.70
46309;DHT22;32037;50.820;6.494;2023-05-14T05:14:43;17.40;82.30
46309;DHT22;32037;50.820;6.494;2023-05-14T05:17:12;17.40;82.20
46309;DHT22;32037;50.820;6.494;2023-05-14T05:19:40;17.40;82.30
46309;DHT22;32037;50.820;6.494;2023-05-14T05:22:12;17.40;82.50
46309;DHT22;32037;50.820;6.494;2023-05-14T05:24:40;17.40;82.20
46309;DHT22;32037;50.820;6.494;2023-05-14T05:27:09;17.40;82.30
46309;DHT22;32037;50.820;6.494;2023-05-14T05:29:37;17.40;82.30
46309;DHT22;32037;50.820;6.494;2023-05-14T05:32:06;17.40;82.40
46309;DHT22;32037;50.820;6.494;2023-05-14T05:34:35;17.50;82.50
46309;DHT22;32037;50.820;6.494;2023-05-14T05:37:03;17.40;82.30
46309;DHT22;32037;50.820;6.494;2023-05-14T05:39:33;17.50;82.50
46309;DHT22;32037;50.820;6.494;2023-05-14T05:42:02;17.50;82.20
46309;DHT22;32037;50.820;6.494;2023-05-14T05:44:31;17.40;82.20
46309;DHT22;32037;50.820;6.494;2023-05-14T05:46:59;17.50;82.40
46309;DHT22;32037;50.820;6.494;2023-05-14T05:49:28;17.40;82.40
46309;DHT22;32037;50.820;6.494;2023-05-14T05:51:57;17.50;82.70
46309;DHT22;32037;50.820;6.494;2023-05-14T05:54:25;17.40;83.70
46309;DHT22;32037;50.820;6.494;2023-05-14T05:56:55;17.40;82.20
46309;DHT22;32037;50.820;6.494;2023-05-14T05:59:23;17.40;82.30
46309;DHT22;32037;50.820;6.494;2023-05-14T06:01:52;17.40;82.40
46309;DHT22;32037;50.820;6.494;2023-05-14T06:04:20;17.40;82.50
46309;DHT22;32037;50.820;6.494;2023-05-14T06:06:49;17.40;82.40
46309;DHT22;32037;50.820;6.494;2023-05-14T06:09:17;17.40;82.40
46309;DHT22;32037;50.820;6.494;2023-05-14T06:11:46;17.40;82.50
46309;DHT22;32037;50.820;6.494;2023-05-14T06:14:15;17.40;82.60
46309;DHT22;32037;50.820;6.494;2023-05-14T06:16:44;17.40;82.70
46309;DHT22;32037;50.820;6.494;2023-05-14T06:19:16;17.40;84.10
46309;DHT22;32037;50.820;6.494;2023-05-14T06:21:44;17.40;82.90
46309;DHT22;32037;50.820;6.494;2023-05-14T06:24:13;17.40;82.90
46309;DHT22;32037;50.820;6.494;2023-05-14T06:26:42;17.40;83.00
46309;DHT22;32037;50.820;6.494;2023-05-14T06:29:10;17.40;82.90
46309;DHT22;32037;50.820;6.494;2023-05-14T06:31:40;17.40;83.00
46309;DHT22;32037;50.820;6.494;2023-05-14T06:34:09;17.40;83.00
46309;DHT22;32037;50.820;6.494;2023-05-14T06:36:37;17.40;83.00
46309;DHT22;32037;50.820;6.494;2023-05-14T06:39:06;17.40;83.00
46309;DHT22;32037;50.820;6.494;2023-05-14T06:41:35;17.40;82.90
46309;DHT22;32037;50.820;6.494;2023-05-14T06:44:03;17.40;82.90
46309;DHT22;32037;50.820;6.494;2023-05-14T06:46:32;17.40;83.00
46309;DHT22;32037;50.820;6.494;2023-05-14T06:49:03;17.40;83.00
46309;DHT22;32037;50.820;6.494;2023-05-14T06:51:31;17.40;82.90
46309;DHT22;32037;50.820;6.494;2023-05-14T06:54:00;17.40;82.90
46309;DHT22;32037;50.820;6.494;2023-05-14T06:56:28;17.50;82.90
46309;DHT22;32037;50.820;6.494;2023-05-14T06:58:57;17.50;82.90
46309;DHT22;32037;50.820;6.494;2023-05-14T07:01:27;17.50;82.80
46309;DHT22;32037;50.820;6.494;2023-05-14T07:03:56;17.50;82.80
46309;DHT22;32037;50.820;6.494;2023-05-14T07:06:26;17.50;82.80
46309;DHT22;32037;50.820;6.494;2023-05-14T07:08:54;17.50;82.70
46309;DHT22;32037;50.820;6.494;2023-05-14T07:11:23;17.50;82.70
46309;DHT22;32037;50.820;6.494;2023-05-14T07:13:52;17.50;82.70
46309;DHT22;32037;50.820;6.494;2023-05-14T07:16:21;17.50;82.60
46309;DHT22;32037;50.820;6.494;2023-05-14T07:18:49;17.50;82.60
46309;DHT22;32037;50.820;6.494;2023-05-14T07:21:18;17.60;82.70
46309;DHT22;32037;50.820;6.494;2023-05-14T07:23:48;17.60;82.60
46309;DHT22;32037;50.820;6.494;2023-05-14T07:26:17;17.60;82.60
46309;DHT22;32037;50.820;6.494;2023-05-14T07:28:45;17.60;82.60
46309;DHT22;32037;50.820;6.494;2023-05-14T07:31:14;17.60;82.60
46309;DHT22;32037;50.820;6.494;2023-05-14T07:33:43;17.60;82.60
46309;DHT22;32037;50.820;6.494;2023-05-14T07:36:12;17.60;82.60
46309;DHT22;32037;50.820;6.494;2023-05-14T07:38:40;17.60;82.60
46309;DHT22;32037;50.820;6.494;2023-05-14T07:41:10;17.60;82.60
46309;DHT22;32037;50.820;6.494;2023-05-14T07:43:39;17.60;82.60
46309;DHT22;32037;50.820;6.494;2023-05-14T07:46:07;17.60;82.50
46309;DHT22;32037;50.820;6.494;2023-05-14T07:48:36;17.60;82.50
46309;DHT22;32037;50.820;6.494;2023-05-14T07:51:05;17.60;82.50
46309;DHT22;32037;50.820;6.494;2023-05-14T07:53:33;17.60;82.40
46309;DHT22;32037;50.820;6.494;2023-05-14T07:56:02;17.60;82.40
46309;DHT22;32037;50.820;6.494;2023-05-14T07:58:32;17.60;82.40
46309;DHT22;32037;50.820;6.494;2023-05-14T08:01:01;17.60;82.50
46309;DHT22;32037;50.820;6.494;2023-05-14T08:03:36;17.60;82.50
46309;DHT22;32037;50.820;6.494;2023-05-14T08:06:05;17.60;82.40
46309;DHT22;32037;50.820;6.494;2023-05-14T08:08:34;17.60;82.40
46309;DHT22;32037;50.820;6.494;2023-05-14T08:11:04;17.60;82.40
46309;DHT22;32037;50.820;6.494;2023-05-14T08:13:35;17.60;82.50
46309;DHT22;32037;50.820;6.494;2023-05-14T08:16:05;17.60;82.40
46309;DHT22;32037;50.820;6.494;2023-05-14T08:18:34;17.60;82.50
46309;DHT22;32037;50.820;6.494;2023-05-14T08:21:03;17.60;82.60
46309;DHT22;32037;50.820;6.494;2023-05-14T08:23:31;17.60;82.50
46309;DHT22;32037;50.820;6.494;2023-05-14T08:26:00;17.70;82.60
46309;DHT22;32037;50.820;6.494;2023-05-14T08:28:29;17.60;82.50
46309;DHT22;32037;50.820;6.494;2023-05-14T08:30:59;17.70;82.60
46309;DHT22;32037;50.820;6.494;2023-05-14T08:33:28;17.60;82.60
46309;DHT22;32037;50.820;6.494;2023-05-14T08:35:56;17.60;82.60
46309;DHT22;32037;50.820;6.494;2023-05-14T08:38:26;17.60;82.60
46309;DHT22;32037;50.820;6.494;2023-05-14T08:40:56;17.60;82.60
46309;DHT22;32037;50.820;6.494;2023-05-14T08:43:26;17.60;82.70
46309;DHT22;32037;50.820;6.494;2023-05-14T08:45:59;17.60;82.60
46309;DHT22;32037;50.820;6.494;2023-05-14T08:48:32;17.60;82.70
46309;DHT22;32037;50.820;6.494;2023-05-14T08:51:01;17.60;82.70
46309;DHT22;32037;50.820;6.494;2023-05-14T08:53:30;17.60;82.70
46309;DHT22;32037;50.820;6.494;2023-05-14T08:56:00;17.70;82.80
46309;DHT22;32037;50.820;6.494;2023-05-14T08:58:29;17.60;82.70
46309;DHT22;32037;50.820;6.494;2023-05-14T09:01:00;17.60;82.70
46309;DHT22;32037;50.820;6.494;2023-05-14T09:03:30;17.60;82.70
46309;DHT22;32037;50.820;6.494;2023-05-14T09:06:00;17.60;82.80
46309;DHT22;32037;50.820;6.494;2023-05-14T09:08:33;17.60;82.80
46309;DHT22;32037;50.820;6.494;2023-05-14T09:11:03;17.60;82.70
46309;DHT22;32037;50.820;6.494;2023-05-14T09:13:32;17.60;82.80
46309;DHT22;32037;50.820;6.494;2023-05-14T09:16:05;17.60;82.70
46309;DHT22;32037;50.820;6.494;2023-05-14T09:18:39;17.60;82.80
46309;DHT22;32037;50.820;6.494;2023-05-14T09:21:12;17.60;82.80
46309;DHT22;32037;50.820;6.494;2023-05-14T09:23:41;17.60;82.90
46309;DHT22;32037;50.820;6.494;2023-05-14T09:26:10;17.60;83.00
46309;DHT22;32037;50.820;6.494;2023-05-14T09:28:39;17.60;83.00
46309;DHT22;32037;50.820;6.494;2023-05-14T09:31:11;17.60;82.90
46309;DHT22;32037;50.820;6.494;2023-05-14T09:33:39;17.60;83.00
46309;DHT22;32037;50.820;6.494;2023-05-14T09:36:08;17.60;83.00
46309;DHT22;32037;50.820;6.494;2023-05-14T09:38:36;17.60;83.10
46309;DHT22;32037;50.820;6.494;2023-05-14T09:41:05;17.60;83.30
46309;DHT22;32037;50.820;6.494;2023-05-14T09:43:33;17.60;82.60
46309;DHT22;32037;50.820;6.494;2023-05-14T09:46:02;17.70;82.80
46309;DHT22;32037;50.820;6.494;2023-05-14T09:48:33;17.60;82.80
46309;DHT22;32037;50.820;6.494;2023-05-14T09:51:01;17.60;82.80
46309;DHT22;32037;50.820;6.494;2023-05-14T09:53:32;17.60;82.90
46309;DHT22;32037;50.820;6.494;2023-05-14T09:56:03;17.60;82.90
46309;DHT22;32037;50.820;6.494;2023-05-14T09:58:41;17.60;83.00
46309;DHT22;32037;50.820;6.494;2023-05-14T10:01:10;17.60;83.10
46309;DHT22;32037;50.820;6.494;2023-05-14T10:03:41;17.60;83.00
46309;DHT22;32037;50.820;6.494;2023-05-14T10:06:15;17.60;83.00
46309;DHT22;32037;50.820;6.494;2023-05-14T10:08:45;17.70;83.50
46309;DHT22;32037;50.820;6.494;2023-05-14T10:11:18;17.60;83.10
46309;DHT22;32037;50.820;6.494;2023-05-14T10:13:59;17.70;83.10
46309;DHT22;32037;50.820;6.494;2023-05-14T10:16:33;17.60;83.10
46309;DHT22;32037;50.820;6.494;2023-05-14T10:19:07;17.60;83.00
46309;DHT22;32037;50.820;6.494;2023-05-14T10:21:37;17.60;83.10
46309;DHT22;32037;50.820;6.494;2023-05-14T10:24:07;17.60;83.10
46309;DHT22;32037;50.820;6.494;2023-05-14T10:26:38;17.70;83.40
46309;DHT22;32037;50.820;6.494;2023-05-14T10:29:09;17.70;83.20
46309;DHT22;32037;50.820;6.494;2023-05-14T10:31:48;17.70;83.30
46309;DHT22;32037;50.820;6.494;2023-05-14T10:34:36;17.60;83.10
46309;DHT22;32037;50.820;6.494;2023-05-14T10:37:08;17.60;83.20
46309;DHT22;32037;50.820;6.494;2023-05-14T10:39:42;17.60;83.20
46309;DHT22;32037;50.820;6.494;2023-05-14T10:42:12;17.60;83.10
46309;DHT22;32037;50.820;6.494;2023-05-14T10:44:51;17.60;83.20
46309;DHT22;32037;50.820;6.494;2023-05-14T10:47:21;17.70;83.40
46309;DHT22;32037;50.820;6.494;2023-05-14T10:49:54;17.70;83.40
46309;DHT22;32037;50.820;6.494;2023-05-14T10:52:23;17.60;83.40
46309;DHT22;32037;50.820;6.494;2023-05-14T10:54:54;17.70;83.50
46309;DHT22;32037;50.820;6.494;2023-05-14T10:57:29;17.70;83.40
46309;DHT22;32037;50.820;6.494;2023-05-14T10:59:59;17.80;83.10
46309;DHT22;32037;50.820;6.494;2023-05-14T11:02:32;17.80;83.20
46309;DHT22;32037;50.820;6.494;2023-05-14T11:05:05;17.80;83.20
46309;DHT22;32037;50.820;6.494;2023-05-14T11:07:41;17.80;83.30
46309;DHT22;32037;50.820;6.494;2023-05-14T11:10:11;17.80;83.40
46309;DHT22;32037;50.820;6.494;2023-05-14T11:12:41;17.70;83.40
46309;DHT22;32037;50.820;6.494;2023-05-14T11:15:11;17.70;83.40
46309;DHT22;32037;50.820;6.494;2023-05-14T11:17:41;17.70;83.50
46309;DHT22;32037;50.820;6.494;2023-05-14T11:20:12;17.70;83.60
46309;DHT22;32037;50.820;6.494;2023-05-14T11:22:43;17.70;83.60
46309;DHT22;32037;50.820;6.494;2023-05-14T11:25:14;17.70;83.60
46309;DHT22;32037;50.820;6.494;2023-05-14T11:27:58;17.70;83.70
46309;DHT22;32037;50.820;6.494;2023-05-14T11:30:27;17.70;83.60
46309;DHT22;32037;50.820;6.494;2023-05-14T11:32:59;17.70;83.70
46309;DHT22;32037;50.820;6.494;2023-05-14T11:35:30;17.80;84.90
46309;DHT22;32037;50.820;6.494;2023-05-14T11:37:59;17.80;83.40
46309;DHT22;32037;50.820;6.494;2023-05-14T11:40:29;17.80;83.30
46309;DHT22;32037;50.820;6.494;2023-05-14T11:42:58;17.80;83.40
46309;DHT22;32037;50.820;6.494;2023-05-14T11:45:27;17.80;83.50
46309;DHT22;32037;50.820;6.494;2023-05-14T11:47:56;17.80;83.60
46309;DHT22;32037;50.820;6.494;2023-05-14T11:50:25;17.80;84.90
46309;DHT22;32037;50.820;6.494;2023-05-14T11:53:04;17.80;83.70
46309;DHT22;32037;50.820;6.494;2023-05-14T11:55:33;17.80;83.70
46309;DHT22;32037;50.820;6.494;2023-05-14T11:58:03;17.80;83.80
46309;DHT22;32037;50.820;6.494;2023-05-14T12:00:36;17.80;83.90
46309;DHT22;32037;50.820;6.494;2023-05-14T12:03:05;17.80;83.90
46309;DHT22;32037;50.820;6.494;2023-05-14T12:05:37;17.80;83.90
46309;DHT22;32037;50.820;6.494;2023-05-14T12:08:20;17.80;83.90
46309;DHT22;32037;50.820;6.494;2023-05-14T12:10:49;17.80;83.90
46309;DHT22;32037;50.820;6.494;2023-05-14T12:13:19;17.80;84.00
46309;DHT22;32037;50.820;6.494;2023-05-14T12:15:54;17.80;84.00
46309;DHT22;32037;50.820;6.494;2023-05-14T12:18:25;17.80;83.90
46309;DHT22;32037;50.820;6.494;2023-05-14T12:21:03;17.80;83.80
46309;DHT22;32037;50.820;6.494;2023-05-14T12:23:37;17.90;84.00
46309;DHT22;32037;50.820;6.494;2023-05-14T12:26:07;17.90;84.00
46309;DHT22;32037;50.820;6.494;2023-05-14T12:28:56;17.90;84.00
46309;DHT22;32037;50.820;6.494;2023-05-14T12:31:28;17.90;83.70
46309;DHT22;32037;50.820;6.494;2023-05-14T12:33:57;17.90;83.80
46309;DHT22;32037;50.820;6.494;2023-05-14T12:36:26;17.90;83.80
46309;DHT22;32037;50.820;6.494;2023-05-14T12:39:00;17.90;83.70
46309;DHT22;32037;50.820;6.494;2023-05-14T12:41:30;17.90;83.50
46309;DHT22;32037;50.820;6.494;2023-05-14T12:44:01;17.90;83.30
46309;DHT22;32037;50.820;6.494;2023-05-14T12:46:30;17.90;83.30
46309;DHT22;32037;50.820;6.494;2023-05-14T12:49:01;17.90;83.20
46309;DHT22;32037;50.820;6.494;2023-05-14T12:51:29;17.90;83.30
46309;DHT22;32037;50.820;6.494;2023-05-14T12:54:04;17.90;83.30
46309;DHT22;32037;50.820;6.494;2023-05-14T12:56:33;17.90;83.30
46309;DHT22;32037;50.820;6.494;2023-05-14T12:59:03;18.00;83.50
46309;DHT22;32037;50.820;6.494;2023-05-14T13:01:32;18.00;83.20
46309;DHT22;32037;50.820;6.494;2023-05-14T13:04:00;18.00;83.30
46309;DHT22;32037;50.820;6.494;2023-05-14T13:06:29;18.00;83.20
46309;DHT22;32037;50.820;6.494;2023-05-14T13:08:57;18.00;83.10
46309;DHT22;32037;50.820;6.494;2023-05-14T13:11:29;18.00;83.10
46309;DHT22;32037;50.820;6.494;2023-05-14T13:14:00;18.00;82.90
46309;DHT22;32037;50.820;6.494;2023-05-14T13:16:29;18.00;82.70
46309;DHT22;32037;50.820;6.494;2023-05-14T13:18:58;18.00;82.80
46309;DHT22;32037;50.820;6.494;2023-05-14T13:21:27;18.00;82.90
46309;DHT22;32037;50.820;6.494;2023-05-14T13:23:56;18.00;82.90
46309;DHT22;32037;50.820;6.494;2023-05-14T13:26:25;18.00;83.00
46309;DHT22;32037;50.820;6.494;2023-05-14T13:28:56;18.10;82.60
46309;DHT22;32037;50.820;6.494;2023-05-14T13:31:24;18.10;82.30
46309;DHT22;32037;50.820;6.494;2023-05-14T13:33:54;18.20;80.80
46309;DHT22;32037;50.820;6.494;2023-05-14T13:36:24;18.30;77.80
46309;DHT22;32037;50.820;6.494;2023-05-14T13:38:53;18.30;77.50
46309;DHT22;32037;50.820;6.494;2023-05-14T13:41:22;18.30;74.70
46309;DHT22;32037;50.820;6.494;2023-05-14T13:43:51;18.30;69.30
46309;DHT22;32037;50.820;6.494;2023-05-14T13:46:21;18.40;67.30
46309;DHT22;32037;50.820;6.494;2023-05-14T13:48:51;18.40;67.10
46309;DHT22;32037;50.820;6.494;2023-05-14T13:51:21;18.40;69.10
46309;DHT22;32037;50.820;6.494;2023-05-14T13:53:50;18.40;69.80
46309;DHT22;32037;50.820;6.494;2023-05-14T13:56:19;18.30;70.70
46309;DHT22;32037;50.820;6.494;2023-05-14T13:58:49;18.30;71.70
46309;DHT22;32037;50.820;6.494;2023-05-14T14:01:18;18.30;72.50
46309;DHT22;32037;50.820;6.494;2023-05-14T14:03:57;18.30;73.00
46309;DHT22;32037;50.820;6.494;2023-05-14T14:06:30;18.20;73.50
46309;DHT22;32037;50.820;6.494;2023-05-14T14:08:59;18.20;73.80
46309;DHT22;32037;50.820;6.494;2023-05-14T14:11:28;18.30;74.30
46309;DHT22;32037;50.820;6.494;2023-05-14T14:13:57;18.40;72.60
46309;DHT22;32037;50.820;6.494;2023-05-14T14:16:26;18.40;72.20
46309;DHT22;32037;50.820;6.494;2023-05-14T14:18:56;18.40;72.60
46309;DHT22;32037;50.820;6.494;2023-05-14T14:21:26;18.40;72.90
46309;DHT22;32037;50.820;6.494;2023-05-14T14:23:55;18.30;73.40
46309;DHT22;32037;50.820;6.494;2023-05-14T14:26:24;18.30;73.60
46309;DHT22;32037;50.820;6.494;2023-05-14T14:28:54;18.30;73.90
46309;DHT22;32037;50.820;6.494;2023-05-14T14:31:24;18.30;74.30
46309;DHT22;32037;50.820;6.494;2023-05-14T14:33:55;18.40;74.60
46309;DHT22;32037;50.820;6.494;2023-05-14T14:36:24;18.40;74.40
46309;DHT22;32037;50.820;6.494;2023-05-14T14:38:53;18.40;73.10
46309;DHT22;32037;50.820;6.494;2023-05-14T14:41:21;18.40;69.20
46309;DHT22;32037;50.820;6.494;2023-05-14T14:43:50;18.40;66.20
46309;DHT22;32037;50.820;6.494;2023-05-14T14:46:34;18.40;62.30
46309;DHT22;32037;50.820;6.494;2023-05-14T14:49:22;18.50;61.50
46309;DHT22;32037;50.820;6.494;2023-05-14T14:52:36;18.50;61.20
46309;DHT22;32037;50.820;6.494;2023-05-14T14:55:41;18.50;61.10
46309;DHT22;32037;50.820;6.494;2023-05-14T14:58:28;18.60;63.10
46309;DHT22;32037;50.820;6.494;2023-05-14T15:01:17;18.50;63.80
46309;DHT22;32037;50.820;6.494;2023-05-14T15:04:44;18.50;65.20
46309;DHT22;32037;50.820;6.494;2023-05-14T15:07:29;18.50;66.30
46309;DHT22;32037;50.820;6.494;2023-05-14T15:10:58;18.50;67.10
46309;DHT22;32037;50.820;6.494;2023-05-14T15:14:03;18.50;67.80
46309;DHT22;32037;50.820;6.494;2023-05-14T15:17:09;18.40;68.20
46309;DHT22;32037;50.820;6.494;2023-05-14T15:20:43;18.50;69.00
46309;DHT22;32037;50.820;6.494;2023-05-14T15:23:31;18.60;65.50
46309;DHT22;32037;50.820;6.494;2023-05-14T15:26:03;18.60;63.60
46309;DHT22;32037;50.820;6.494;2023-05-14T15:28:39;18.70;63.90
46309;DHT22;32037;50.820;6.494;2023-05-14T15:31:08;18.70;64.60
46309;DHT22;32037;50.820;6.494;2023-05-14T15:33:45;18.70;65.40
46309;DHT22;32037;50.820;6.494;2023-05-14T15:36:15;18.60;66.30
46309;DHT22;32037;50.820;6.494;2023-05-14T15:38:43;18.60;67.00
46309;DHT22;32037;50.820;6.494;2023-05-14T15:41:13;18.60;67.40
46309;DHT22;32037;50.820;6.494;2023-05-14T15:43:41;18.60;67.90
46309;DHT22;32037;50.820;6.494;2023-05-14T15:46:10;18.60;68.40
46309;DHT22;32037;50.820;6.494;2023-05-14T15:48:39;18.60;68.70
46309;DHT22;32037;50.820;6.494;2023-05-14T15:51:08;18.70;68.40
46309;DHT22;32037;50.820;6.494;2023-05-14T15:53:39;18.70;68.70